Westchester, Florida
Current Conditions -  °F | °C
As of 2:53 PM on Thursday 27 Nov 2014 (Local Time) from KMIA Reporting Station
Few Clouds Few Clouds  
Wind Chill: 73°   Ceiling: Unl
Heat Index: 73°   Visibility: 10mi
Dew Point: 42°   Wind: 12mph
Humidity: 33%   Direction: 340°NNW
Pressure: 30.15"   Gusts: NA
Location:  25.7365°N, 80.3606°W
Report Text: KMIA 271953Z 34010KT 10SM FEW040 FEW150 23/06 A3015 RMK AO2 SLP211 T02280056 VISNO RWY 9L
Loading
Personal Weather Stations






























Interactive Weather Map New forecast layout! Learn more

10-Day Weather Forecast

Advertisements
Track Severe Weather on mobile